Glendive, Montana
Current Conditions -  °F | °C
As of 12:35 AM on Saturday 29 Nov 2014 (Local Time) from KGDV Reporting Station
Overcast Overcast  
Wind Chill: 16°   Ceiling: 400
Heat Index: 27°   Visibility: 4mi
Dew Point: 25°   Wind: 13mph
Humidity: 93%   Direction: 340°NNW
Pressure: 29.45"   Gusts: NA
Location:  47.11°N, 104.71°W
Report Text: KGDV 290735Z AUTO 34011KT 4SM OVC004 M03/M04 A2945 RMK AO1
Loading
Personal Weather Stations






























Interactive Weather Map New forecast layout! Learn more

10-Day Weather Forecast

Advertisements
Track Severe Weather on mobile